Terminal Aerodrome Forecast
Issued by NWS

Home | Current Version | Previous Version | Text Only | Print | Product List | Glossary On
Versions: 1 2 3 4 5 6 7 8 9 10 11 12 13 14
000
FTUS42 KTBW 231925 AAB
TAFRSW
TAF AMD
KRSW 231925Z 2319/2418 09008KT P6SM VCTS SCT035CB
      TEMPO 2319/2320 2SM TSRA BKN035CB
     FM240100 06005KT P6SM SCT100
     FM241600 08007KT P6SM SCT035 SCT250=

USA.gov is the U.S. government's official web portal to all federal, state and local government web resources and services.